• Join FlightAware (Why Join?)
  • Login
  • US Flag 
04:16AM EDT


 

Airport Tracker/Info


-or-


 

Live Flight TrackerFlight Track Log ✈ DAL1903 ✈ 02-May-2013 ✈ KLGA - KSRQ

Flight Track Log - Related Links

Times and Time Zones

All times are in EDT time to prevent confusion due to time zone crossing. See the DAL1903 flight status page for this flight to view local times or setup timezone preferences in your user account.

Time Position Orientation Groundspeed Altitude Reporting Facility
EDT Latitude Longitude Course Direction KTS MPH feet Rate Location/Type
10:57AM 40.7333 -73.8333 237° Southwest 209 241 1,800  Level New York TRACON
10:58AM 40.7667 -73.7833 49° Northeast 215 247 4,600 2,640 Climbing New York TRACON
10:59AM 40.6273 -74.2939 244° Southwest  Level FlightAware Approximate
10:59AM 40.8167 -73.8167 333° Northwest 280 322 7,100  Level New York TRACON
11:00AM 40.5765 -74.4372 246° West  Level FlightAware Approximate
11:00AM 40.8500 -73.9167 294° West 311 358 10,200  Level New York TRACON
11:01AM 40.5333 -74.5834 270° West  Level FlightAware Approximate
11:01AM 40.8167 -74.0333 249° West 324 373 11,900  Level New York TRACON
11:02AM 40.4872 -74.7255 237° Southwest  Level FlightAware Approximate
11:02AM 40.8000 -74.1667 261° West 382 440 13,400  Level New York TRACON
11:04AM 40.6844 -74.4217 239° Southwest 430 495 17,000 1,500 Climbing New York Center
11:05AM 40.6258 -74.5636 241° Southwest 440 506 18,000 1,380 Climbing New York Center
11:06AM 40.5628 -74.7047 240° Southwest 445 512 19,900 1,860 Climbing New York Center
11:07AM 40.4992 -74.8567 241° Southwest 457 526 21,700 1,680 Climbing New York Center
11:08AM 40.4317 -75.0028 239° Southwest 470 541 23,300 1,740 Climbing New York Center
11:09AM 40.3636 -75.1539 239° Southwest 475 547 25,300 1,980 Climbing New York Center
11:10AM 40.2714 -75.2786 226° Southwest 476 548 27,400 1,680 Climbing New York Center
11:11AM 40.1733 -75.3889 221° Southwest 476 548 28,600 1,320 Climbing New York Center
11:12AM 40.0839 -75.4889 221° Southwest 471 542 30,000 1,320 Climbing New York Center
11:13AM 39.9856 -75.5986 221° Southwest 471 542 31,300 900 Climbing New York Center
11:14AM 39.8953 -75.7169 225° Southwest 471 542 31,900 300 Climbing New York Center
11:15AM 39.8147 -75.8436 230° Southwest 466 536 32,000  Climbing New York Center
11:16AM 39.7339 -75.9728 231° Southwest 466 536 32,000  Level New York Center
11:18AM 39.5869 -76.2056 231° Southwest 466 536 32,000  Level Washington Center
11:19AM 39.5031 -76.3283 228° Southwest 466 536 32,000  Level Washington Center
11:20AM 39.4208 -76.4567 230° Southwest 466 536 32,000  Level Washington Center
11:21AM 39.3386 -76.5817 230° Southwest 466 536 32,000  Level Washington Center
11:22AM 39.2583 -76.7067 230° Southwest 466 536 32,000  Level Washington Center
11:23AM 39.1694 -76.8444 230° Southwest 466 536 32,000  Level Washington Center
11:24AM 39.0994 -76.9556 231° Southwest 466 536 32,000  Level Washington Center
11:25AM 39.0231 -77.0639 228° Southwest 448 516 32,000  Level Washington Center
11:26AM 38.9344 -77.1581 220° Southwest 426 490 32,000  Level Washington Center
11:27AM 38.8433 -77.2600 221° Southwest 426 490 32,000  Level Washington Center
11:28AM 38.7544 -77.3567 220° Southwest 426 490 32,000  Level Washington Center
11:29AM 38.6614 -77.4581 220° Southwest 437 503 32,000  Level Washington Center
11:30AM 38.5594 -77.5669 220° Southwest 437 503 32,000  Level Washington Center
11:31AM 38.4681 -77.6681 221° Southwest 437 503 32,000  Level Washington Center
11:32AM 38.3789 -77.7661 221° Southwest 437 503 32,000  Level Washington Center
11:33AM 38.2894 -77.8667 221° Southwest 437 503 32,000  Level Washington Center
11:34AM 38.2000 -77.9617 220° Southwest 437 503 32,000  Level Washington Center
11:35AM 38.1061 -78.0617 220° Southwest 437 503 32,000  Level Washington Center
11:36AM 38.0167 -78.1564 220° Southwest 437 503 32,000  Level Washington Center
11:37AM 37.9250 -78.2453 217° Southwest 425 489 32,000  Level Washington Center
11:38AM 37.8269 -78.3367 216° Southwest 432 497 32,000  Level Washington Center
11:39AM 37.7311 -78.4275 217° Southwest 437 503 32,000  Level Washington Center
11:40AM 37.6436 -78.5083 216° Southwest 442 509 32,000  Level Washington Center
11:41AM 37.5433 -78.5986 216° Southwest 442 509 32,000  Level Washington Center
11:42AM 37.4469 -78.6917 217° Southwest 442 509 32,000  Level Washington Center
11:43AM 37.3489 -78.7792 215° Southwest 442 509 32,000  Level Washington Center
11:44AM 37.2397 -78.8789 216° Southwest 442 509 32,000  Level Washington Center
11:45AM 37.1411 -78.9686 216° Southwest 442 509 32,000  Level Washington Center
11:46AM 37.0447 -79.0581 217° Southwest 442 509 32,000  Level Washington Center
11:47AM 36.9483 -79.1472 216° Southwest 442 509 32,000  Level Washington Center
11:48AM 36.8558 -79.2364 218° Southwest 437 503 32,000  Level Washington Center
11:49AM 36.7636 -79.3228 217° Southwest 432 497 32,000  Level Washington Center
11:50AM 36.6753 -79.4042 216° Southwest 432 497 32,000  Level Washington Center
11:52AM 36.4719 -79.5878 216° Southwest 414 476 32,000  Level Atlanta Center
11:53AM 36.3769 -79.6731 216° Southwest 414 476 32,000  Level Atlanta Center
11:54AM 36.2819 -79.7581 216° Southwest 419 482 32,000  Level Atlanta Center
11:55AM 36.1892 -79.8481 218° Southwest 424 488 32,000  Level Atlanta Center
11:56AM 36.1019 -79.9244 215° Southwest 424 488 32,000  Level Atlanta Center
11:57AM 36.0022 -79.9961 210° Southwest 424 488 32,000  Level Atlanta Center
11:58AM 35.8911 -80.0478 201° Southwest 418 481 32,000  Level Atlanta Center
11:59AM 35.7722 -80.1100 203° Southwest 423 487 32,000  Level Atlanta Center
12:00PM 35.6881 -80.1550 203° Southwest 423 487 32,000  Level Atlanta Center
12:01PM 35.5772 -80.2111 202° Southwest 423 487 32,000  Level Atlanta Center
12:02PM 35.4581 -80.2703 202° Southwest 432 497 32,000  Level Atlanta Center
12:03PM 35.3408 -80.3292 202° Southwest 422 486 32,000  Level Atlanta Center
12:04PM 35.2339 -80.3822 202° Southwest 415 478 32,000  Level Atlanta Center
12:05PM 35.1250 -80.4378 203° Southwest 431 496 32,000  Level Atlanta Center
12:06PM 34.9386 -80.5300 202° Southwest 426 490 32,000  Level Jacksonville Center
12:07PM 34.8311 -80.5836 202° Southwest 426 490 32,000  Level Jacksonville Center
12:08PM 34.7319 -80.6342 203° Southwest 416 479 32,000  Level Jacksonville Center
12:09PM 34.6244 -80.6875 202° Southwest 411 473 32,000  Level Jacksonville Center
12:10PM 34.5147 -80.7381 201° Southwest 427 491 32,000  Level Jacksonville Center
12:11PM 34.4094 -80.7911 203° Southwest 422 486 32,000  Level Jacksonville Center
12:12PM 34.3039 -80.8464 203° Southwest 415 478 32,000  Level Jacksonville Center
12:13PM 34.2044 -80.8914 201° Southwest 404 465 32,000  Level Jacksonville Center
12:14PM 34.0989 -80.9414 201° Southwest 404 465 32,000  Level Jacksonville Center
12:15PM 33.9953 -80.9939 203° Southwest 409 471 32,000  Level Jacksonville Center
12:16PM 33.9042 -81.0333 200° South 403 464 32,000  Level Jacksonville Center
12:17PM 33.7942 -81.0858 202° Southwest 408 470 32,000  Level Jacksonville Center
12:18PM 33.6867 -81.1428 204° Southwest 413 475 32,000  Level Jacksonville Center
12:19PM 33.5828 -81.1922 202° Southwest 413 475 32,000  Level Jacksonville Center
12:20PM 33.4792 -81.2464 204° Southwest 413 475 32,000  Level Jacksonville Center
12:21PM 33.3733 -81.2958 201° Southwest 413 475 32,000  Level Jacksonville Center
12:22PM 33.2678 -81.3472 202° Southwest 413 475 32,000  Level Jacksonville Center
12:23PM 33.1639 -81.3989 203° Southwest 413 475 32,000  Level Jacksonville Center
12:24PM 33.0581 -81.4500 202° Southwest 413 475 32,000  Level Jacksonville Center
12:25PM 32.9542 -81.5014 203° Southwest 413 475 32,000  Level Jacksonville Center
12:26PM 32.8483 -81.5522 202° Southwest 413 475 32,000  Level Jacksonville Center
12:27PM 32.7425 -81.6033 202° Southwest 413 475 32,000  Level Jacksonville Center
12:28PM 32.6281 -81.6592 202° Southwest 413 475 32,000  Level Jacksonville Center
12:29PM 32.5325 -81.7047 202° Southwest 420 483 32,000  Level Jacksonville Center
12:30PM 32.4183 -81.7606 202° Southwest 415 478 32,000  Level Jacksonville Center
12:31PM 32.3103 -81.8111 202° Southwest 415 478 32,000  Level Jacksonville Center
12:32PM 32.2144 -81.8564 202° Southwest 415 478 32,000  Level Jacksonville Center
12:33PM 32.1000 -81.9117 202° Southwest 410 472 32,000  Level Jacksonville Center
12:34PM 31.9961 -81.9592 201° Southwest 415 478 32,000  Level Jacksonville Center
12:35PM 31.8900 -82.0044 200° South 410 472 32,000  Level Jacksonville Center
12:36PM 31.7858 -82.0444 198° South 405 466 32,000  Level Jacksonville Center
12:37PM 31.6922 -82.0844 200° South 405 466 32,000  Level Jacksonville Center
12:38PM 31.5756 -82.1317 199° South 405 466 32,000  Level Jacksonville Center
12:39PM 31.4692 -82.1764 200° South 400 460 32,000  Level Jacksonville Center
12:40PM 31.3631 -82.2186 199° South 408 470 32,000  Level Jacksonville Center
12:41PM 31.2589 -82.2583 198° South 403 464 32,000  Level Jacksonville Center
12:42PM 31.1525 -82.3003 199° South 403 464 32,000  Level Jacksonville Center
12:43PM 31.0483 -82.3422 199° South 403 464 32,000 -60 Level Jacksonville Center
12:44PM 30.9400 -82.3839 198° South 403 464 31,900  Descending Jacksonville Center
12:45PM 30.8314 -82.4256 198° South 403 464 32,000  Climbing Jacksonville Center
12:46PM 30.7253 -82.4672 199° South 403 464 32,000  Level Jacksonville Center
12:47PM 30.6167 -82.5086 198° South 403 464 32,000 -60 Level Jacksonville Center
12:48PM 30.5083 -82.5478 197° South 403 464 31,900  Descending Jacksonville Center
12:49PM 30.4039 -82.5169 166° South 382 440 32,000  Climbing Jacksonville Center
12:51PM 30.2794 -82.4734 163° South  Level FlightAware Approximate
12:51PM 30.1947 -82.4239 163° South 397 457 32,000  Level Jacksonville Center
12:52PM 30.0861 -82.3933 166° South 402 463 32,000 -540 Level Jacksonville Center
12:53PM 29.9772 -82.3675 168° South 402 463 31,000 -540 Descending Jacksonville Center
12:54PM 29.8667 -82.3489 172° South 402 463 31,000 -60 Level Jacksonville Center
12:55PM 29.7558 -82.3303 172° South 402 463 30,900 -1,860 Descending Jacksonville Center
12:56PM 29.6431 -82.3047 169° South 409 471 27,300 -1,980 Descending Jacksonville Center
12:57PM 29.5364 -82.2839 170° South 409 471 27,000 -180 Descending Jacksonville Center
12:58PM 29.4278 -82.2631 171° South 404 465 27,000 -60 Level Jacksonville Center
12:59PM 29.3044 -82.2378 170° South 419 482 26,900 -540 Descending Jacksonville Center
01:00PM 29.1811 -82.2172 172° South 441 507 26,000 -1,440 Descending Jacksonville Center
01:01PM 29.0642 -82.1917 169° South 441 507 24,100 -1,200 Descending Jacksonville Center
01:02PM 28.9536 -82.1736 172° South 431 496 23,700 -720 Descending Jacksonville Center
01:03PM 28.8658 -82.1575 171° South 392 451 22,700 -2,520 Descending Jacksonville Center
01:05PM 28.6833 -82.1167 169° South 374 430 16,700 -2,880 Descending Tampa TRACON
01:06PM 28.5667 -82.1000 173° South 383 441 14,600 -1,740 Descending Tampa TRACON
01:07PM 28.4833 -82.0833 170° South 351 404 13,300 -1,200 Descending Tampa TRACON
01:08PM 28.3833 -82.0667 172° South 323 372 12,300 -1,200 Descending Tampa TRACON
01:09PM 28.3000 -82.0667 180° South 305 351 11,000 -660 Descending Tampa TRACON
01:10PM 28.2167 -82.0500 170° South 303 349 11,000 -180 Level Tampa TRACON
01:11PM 28.1500 -82.0833 204° Southwest 298 343 10,700 -840 Descending Tampa TRACON
01:12PM 28.0667 -82.1167 199° South 293 337 9,500 -1,380 Descending Tampa TRACON
01:13PM 28.0000 -82.1500 204° Southwest 290 334 8,000 -1,500 Descending Tampa TRACON
01:14PM 27.9167 -82.1667 190° South 284 327 6,600 -960 Descending Tampa TRACON
01:15PM 27.8333 -82.2000 199° South 275 316 6,000 -300 Descending Tampa TRACON
01:16PM 27.7667 -82.2333 204° Southwest 273 314 6,000  Level Tampa TRACON
01:17PM 27.7167 -82.2833 222° Southwest 272 313 6,000  Level Tampa TRACON
01:18PM 27.6667 -82.3333 222° Southwest 273 314 6,000 -360 Level Tampa TRACON
01:19PM 27.6333 -82.4167 246° West 270 311 5,400 -540 Descending Tampa TRACON
01:20PM 27.6000 -82.4833 241° Southwest 269 310 5,000 -600 Descending Tampa TRACON
01:21PM 27.5833 -82.5667 257° West 267 307 4,300 -540 Descending Tampa TRACON
01:22PM 27.5500 -82.6500 246° West 266 306 4,000 -720 Descending Tampa TRACON
01:23PM 27.5167 -82.7167 241° Southwest 250 288 2,800 -1,200 Descending Tampa TRACON